Flight Track Log - Related Links

Times and Time Zones

All times are in EST time to prevent confusion due to time zone crossing. See the SWA511 flight status page for this flight to view local times or setup timezone preferences in your user account.


Time Position Orientation Groundspeed Altitude Reporting Facility
EST Latitude Longitude Course Direction KTS MPH feet Rate Location/Type
Sun 04:17:20 PM 37.7333 -122.2500 302° West 173 199 1,300  Level Northern Cal TRACON
Sun 04:18:20 PM 37.7667 -122.3167 302° West 233 268 3,200 2,250 Climbing Northern Cal TRACON
Sun 04:19:20 PM 37.7667 -122.4000 270° West 252 290 5,800 2,478 Climbing Northern Cal TRACON
Sun 04:19:52 PM 37.7422 -122.4136 204° Southwest 234 269 7,000 2,645 Climbing Oakland Center
Sun 04:20:53 PM 37.6772 -122.3822 159° South 261 300 9,900 2,293 Climbing Oakland Center
Sun 04:21:55 PM 37.6217 -122.3097 134° Southeast 293 337 11,700 2,146 Climbing Oakland Center
Sun 04:22:56 PM 37.5536 -122.2278 136° Southeast 335 386 14,300 2,488 Climbing Oakland Center
Sun 04:23:58 PM 37.4853 -122.1428 135° Southeast 346 398 16,800 2,371 Climbing Oakland Center
Sun 04:25:00 PM 37.4119 -122.0544 136° Southeast 362 417 19,200 2,244 Climbing Oakland Center
Sun 04:26:01 PM 37.3386 -121.9647 136° Southeast 368 423 21,400 1,805 Climbing Oakland Center
Sun 04:27:03 PM 37.2589 -121.8694 136° Southeast 394 453 22,900 1,659 Climbing Oakland Center
Sun 04:28:04 PM 37.1708 -121.7639 136° Southeast 406 467 24,800 1,659 Climbing Oakland Center
Sun 04:29:06 PM 37.0731 -121.6489 137° Southeast 430 495 26,300 1,355 Climbing Oakland Center
Sun 04:30:08 PM 36.9836 -121.5453 137° Southeast 440 506 27,600 1,268 Climbing Oakland Center
Sun 04:31:09 PM 36.8947 -121.4328 135° Southeast 454 522 28,900 1,512 Climbing Oakland Center
Sun 04:32:11 PM 36.8050 -121.3283 137° Southeast 453 521 30,700 1,561 Climbing Oakland Center
Sun 04:33:12 PM 36.7147 -121.2258 138° Southeast 442 509 32,100 1,415 Climbing Oakland Center
Sun 04:34:14 PM 36.6097 -121.1008 136° Southeast 437 503 33,600 1,113 Climbing Oakland Center
Sun 04:35:16 PM 36.5211 -120.9961 136° Southeast 440 506 34,400 683 Climbing Oakland Center
Sun 04:36:17 PM 36.4339 -120.8903 136° Southeast 440 506 35,000 293 Climbing Oakland Center
Sun 04:37:19 PM 36.3456 -120.7872 137° Southeast 437 503 35,000  Level Oakland Center
Sun 04:38:20 PM 36.2550 -120.6806 136° Southeast 447 514 35,000  Level Oakland Center
Sun 04:39:22 PM 36.1628 -120.5747 137° Southeast 451 519 35,000  Level Oakland Center
Sun 04:40:24 PM 36.0708 -120.4683 137° Southeast 452 520 35,000  Level Oakland Center
Sun 04:41:25 PM 35.9800 -120.3611 136° Southeast 452 520 35,000  Level Oakland Center
Sun 04:42:27 PM 35.8706 -120.2353 137° Southeast 449 517 35,000  Level Oakland Center
Sun 04:43:28 PM 35.7806 -120.1325 137° Southeast 442 509 35,000  Level Oakland Center
Sun 04:44:30 PM 35.6914 -120.0294 137° Southeast 437 503 35,000  Level Oakland Center
Sun 04:45:34 PM 35.5956 -119.9336 141° Southeast 436 502 35,000  Level Los Angeles Center
Sun 04:46:36 PM 35.4933 -119.8472 145° Southeast 440 506 35,000  Level Los Angeles Center
Sun 04:47:38 PM 35.3903 -119.7575 145° Southeast 448 516 35,000  Level Los Angeles Center
Sun 04:48:40 PM 35.2861 -119.6675 145° Southeast 453 521 35,000  Level Los Angeles Center
Sun 04:49:42 PM 35.1831 -119.5786 145° Southeast 454 522 35,000 -48 Level Los Angeles Center
Sun 04:50:44 PM 35.0597 -119.4742 145° Southeast 449 517 34,900 -532 Descending Los Angeles Center
Sun 04:51:46 PM 34.9581 -119.3864 145° Southeast 447 514 33,900 -968 Descending Los Angeles Center
Sun 04:52:48 PM 34.8561 -119.2997 145° Southeast 447 514 32,900 -2,032 Descending Los Angeles Center
Sun 04:53:50 PM 34.7539 -119.2125 145° Southeast 448 516 29,700 -3,919 Descending Los Angeles Center
Sun 04:54:52 PM 34.6356 -119.1144 146° Southeast 452 520 24,800 -3,744 Descending Los Angeles Center
Sun 04:55:55 PM 34.5492 -119.0403 145° Southeast 431 496 21,900 -3,024 Descending Los Angeles Center
Sun 04:56:57 PM 34.4375 -118.9494 146° Southeast 402 463 18,500 -2,710 Descending Los Angeles Center
Sun 04:57:59 PM 34.3500 -118.8803 147° Southeast 373 429 16,300 -2,226 Descending Los Angeles Center
Sun 04:59:01 PM 34.2525 -118.8436 163° South 363 418 13,900 -2,226 Descending Los Angeles Center
Sun 05:00:03 PM 34.1594 -118.8092 163° South 352 405 11,700 -1,887 Descending Los Angeles Center
Sun 05:01:05 PM 34.0578 -118.7694 162° South 334 384 10,000 -823 Descending Los Angeles Center
Sun 05:02:07 PM 34.0319 -118.6869 111° Southeast 273 314 10,000 -387 Level Los Angeles Center
Sun 05:03:09 PM 34.0244 -118.6039 96° East 252 290 9,200 -968 Descending Los Angeles Center
Sun 05:04:11 PM 34.0158 -118.5197 97° East 237 273 8,000 -1,065 Descending Los Angeles Center
Sun 05:05:13 PM 34.0131 -118.4458 93° East 227 261 7,000 -1,056 Descending Los Angeles Center
Sun 05:06:16 PM 34.0217 -118.3683 82° East 232 267 5,800 -1,056 Descending Los Angeles Center
Sun 05:07:18 PM 34.0292 -118.2944 83° East 228 262 4,800 -968 Descending Los Angeles Center
Sun 05:08:20 PM 34.0289 -118.2306 90° East 217 250 3,800 -1,113 Descending Los Angeles Center
Sun 05:09:22 PM 33.9822 -118.2564 205° Southwest 193 222 2,500 -1,016 Descending Los Angeles Center
Sun 05:10:24 PM 33.9631 -118.3114 247° West 185 213 1,700 -774 Descending Los Angeles Center
Sun 05:11:26 PM 33.9569 -118.3586 261° West 162 186 900 -677 Descending Los Angeles Center
Sun 05:12:28 PM 33.9531 -118.3972 263° West 134 154 300 -581 Descending Los Angeles Center
Sun 05:14:00 PM 33.9333 -118.4000 228° Southwest  Level FlightAware Approximate

Login

Don't have an account? Register now (free) for customized features, flight alerts, and more!